createdAt,value
2019-04-06T00:01:55.452Z,8.76
2019-04-06T00:04:27.073Z,8.68
2019-04-06T00:06:58.662Z,8.58
2019-04-06T00:09:30.289Z,8.71
2019-04-06T00:12:01.941Z,8.67
2019-04-06T00:14:35.068Z,8.65
2019-04-06T00:17:06.723Z,8.61
2019-04-06T00:19:38.374Z,8.60
2019-04-06T00:22:09.986Z,8.66
2019-04-06T00:24:41.581Z,8.68
2019-04-06T00:27:13.203Z,8.66
2019-04-06T00:29:44.823Z,8.71
2019-04-06T00:32:35.643Z,8.81
2019-04-06T00:35:07.608Z,8.69
2019-04-06T00:37:40.182Z,8.88
2019-04-06T00:40:12.012Z,8.81
2019-04-06T00:42:43.575Z,8.82
2019-04-06T00:45:15.342Z,8.77
2019-04-06T00:47:47.988Z,8.85
2019-04-06T00:50:19.676Z,8.84
2019-04-06T00:52:51.303Z,8.81
2019-04-06T00:55:22.992Z,8.26
2019-04-06T00:57:54.655Z,8.03
2019-04-06T01:00:26.644Z,7.99
2019-04-06T01:02:58.293Z,7.91
2019-04-06T01:05:30.004Z,7.99
2019-04-06T01:08:01.643Z,7.97
2019-04-06T01:10:34.542Z,7.95
2019-04-06T01:13:06.174Z,7.90
2019-04-06T01:15:37.779Z,7.91
2019-04-06T01:18:09.381Z,7.92
2019-04-06T01:20:41.109Z,7.91
2019-04-06T01:23:12.647Z,7.90
2019-04-06T01:25:44.318Z,7.89
2019-04-06T01:28:15.954Z,7.83
2019-04-06T01:30:47.533Z,7.85
2019-04-06T01:33:19.360Z,7.88
2019-04-06T01:35:51.036Z,7.86
2019-04-06T01:38:22.630Z,8.03
2019-04-06T01:40:54.208Z,7.96
2019-04-06T01:43:25.841Z,8.00
2019-04-06T01:45:57.465Z,8.06
2019-04-06T01:48:30.762Z,8.09
2019-04-06T01:51:03.866Z,8.16
2019-04-06T01:53:35.443Z,8.20
2019-04-06T01:56:17.636Z,8.14
2019-04-06T01:58:40.349Z,7.99
2019-04-06T02:01:18.360Z,7.84
2019-04-06T02:03:50.018Z,7.81
2019-04-06T02:06:21.632Z,7.76
2019-04-06T02:08:53.247Z,7.83
2019-04-06T02:11:25.056Z,7.83
2019-04-06T02:13:56.607Z,7.85
2019-04-06T02:16:29.567Z,7.85
2019-04-06T02:19:01.491Z,7.80
2019-04-06T02:21:33.101Z,7.84
2019-04-06T02:24:04.647Z,7.93
2019-04-06T02:26:36.301Z,8.14
2019-04-06T02:29:07.850Z,8.15
2019-04-06T02:32:04.252Z,8.07
2019-04-06T02:34:53.714Z,8.13
2019-04-06T02:37:53.179Z,8.30
2019-04-06T02:40:47.360Z,8.36
2019-04-06T02:43:21.857Z,8.35
2019-04-06T02:45:53.576Z,8.38
2019-04-06T02:48:25.233Z,8.41
2019-04-06T02:50:58.444Z,8.39
2019-04-06T02:53:30.089Z,8.32
2019-04-06T02:56:02.166Z,8.26
2019-04-06T02:58:33.932Z,8.37
2019-04-06T03:01:05.673Z,8.49
2019-04-06T03:03:38.245Z,8.36
2019-04-06T03:06:09.814Z,8.40
2019-04-06T03:08:41.510Z,8.40
2019-04-06T03:11:13.247Z,8.42
2019-04-06T03:13:44.822Z,8.35
2019-04-06T03:16:16.422Z,8.49
2019-04-06T03:18:48.039Z,8.48
2019-04-06T03:21:19.595Z,8.45
2019-04-06T03:23:52.374Z,8.38
2019-04-06T03:26:25.494Z,8.16
2019-04-06T03:28:57.850Z,8.14
2019-04-06T03:31:29.548Z,8.11
2019-04-06T03:34:01.191Z,8.05
2019-04-06T03:36:32.937Z,8.01
2019-04-06T03:39:05.465Z,7.96
2019-04-06T03:41:37.058Z,8.05
2019-04-06T03:44:08.824Z,8.12
2019-04-06T03:46:40.449Z,8.09
2019-04-06T03:49:11.995Z,8.09
2019-04-06T03:51:43.529Z,8.09
2019-04-06T03:54:15.417Z,8.02
2019-04-06T03:56:46.951Z,8.06
2019-04-06T03:59:18.648Z,8.04
2019-04-06T04:01:50.523Z,8.06
2019-04-06T04:04:22.058Z,8.05
2019-04-06T04:06:55.293Z,8.03
2019-04-06T04:09:26.802Z,8.12
2019-04-06T04:11:58.654Z,8.10
2019-04-06T04:14:30.218Z,8.17
2019-04-06T04:17:01.764Z,8.21
2019-04-06T04:19:33.339Z,8.13
2019-04-06T04:22:04.910Z,8.18
2019-04-06T04:24:36.443Z,8.19
2019-04-06T04:27:08.075Z,8.36
2019-04-06T04:29:39.627Z,8.47
2019-04-06T04:32:11.165Z,8.32
2019-04-06T04:34:42.714Z,7.98
2019-04-06T04:37:14.279Z,7.82
2019-04-06T04:39:45.817Z,7.72
2019-04-06T04:42:17.430Z,7.72
2019-04-06T04:44:49.469Z,7.73
2019-04-06T04:47:21.186Z,7.74
2019-04-06T04:49:52.737Z,7.70
2019-04-06T04:52:26.160Z,7.67
2019-04-06T04:54:58.190Z,7.60
2019-04-06T04:57:39.581Z,7.53
2019-04-06T05:00:03.064Z,7.51
2019-04-06T05:02:34.913Z,7.51
2019-04-06T05:05:09.271Z,7.45
2019-04-06T05:07:40.085Z,7.40
2019-04-06T05:10:11.943Z,7.38
2019-04-06T05:12:43.512Z,7.33
2019-04-06T05:15:21.091Z,7.28
2019-04-06T05:17:53.620Z,7.24
2019-04-06T05:20:25.149Z,7.26
2019-04-06T05:22:57.264Z,7.27
2019-04-06T05:25:28.802Z,7.35
2019-04-06T05:28:00.344Z,7.38
2019-04-06T05:30:31.979Z,7.43
2019-04-06T05:33:03.525Z,7.49
2019-04-06T05:35:35.091Z,7.54
2019-04-06T05:38:06.655Z,7.54
2019-04-06T05:40:39.191Z,7.56
2019-04-06T05:43:10.739Z,7.55
2019-04-06T05:45:42.656Z,7.48
2019-04-06T05:48:14.461Z,7.46
2019-04-06T05:50:46.024Z,7.49
2019-04-06T05:53:17.591Z,7.55
2019-04-06T05:55:49.145Z,7.56
2019-04-06T05:58:21.001Z,7.64
2019-04-06T06:00:52.688Z,7.67
2019-04-06T06:03:24.260Z,7.73
2019-04-06T06:05:55.808Z,7.83
2019-04-06T06:08:27.376Z,7.90
2019-04-06T06:10:59.353Z,7.95
2019-04-06T06:13:30.897Z,8.02
2019-04-06T06:16:02.447Z,8.14
2019-04-06T06:18:33.990Z,8.15
2019-04-06T06:21:05.745Z,8.25
2019-04-06T06:23:37.379Z,8.33
2019-04-06T06:26:08.946Z,8.46
2019-04-06T06:28:40.585Z,8.67
2019-04-06T06:31:12.145Z,8.67
2019-04-06T06:33:43.799Z,8.62
2019-04-06T06:36:15.528Z,8.63
2019-04-06T06:38:47.071Z,8.60
2019-04-06T06:41:18.697Z,8.65
2019-04-06T06:43:50.599Z,8.69
2019-04-06T06:46:22.375Z,8.73
2019-04-06T06:48:54.265Z,8.77
2019-04-06T06:51:25.817Z,8.77
2019-04-06T06:53:57.675Z,8.81
2019-04-06T06:56:29.343Z,8.87
2019-04-06T06:59:00.901Z,8.95
2019-04-06T07:01:32.443Z,9.10
2019-04-06T07:04:04.000Z,9.28
2019-04-06T07:06:35.542Z,9.31
2019-04-06T07:09:08.413Z,9.45
2019-04-06T07:11:39.943Z,9.39
2019-04-06T07:14:12.743Z,9.48
2019-04-06T07:16:44.430Z,9.42
2019-04-06T07:19:16.051Z,9.15
2019-04-06T07:21:47.577Z,9.12
2019-04-06T07:24:19.732Z,9.04
2019-04-06T07:26:51.258Z,8.98
2019-04-06T07:29:22.813Z,9.03
2019-04-06T07:31:54.365Z,9.11
2019-04-06T07:34:26.065Z,9.14
2019-04-06T07:36:57.732Z,9.25
2019-04-06T07:39:29.272Z,9.29
2019-04-06T07:42:01.235Z,9.36
2019-04-06T07:44:32.782Z,9.31
2019-04-06T07:47:04.547Z,9.41
2019-04-06T07:49:36.094Z,9.37
2019-04-06T07:52:07.917Z,9.49
2019-04-06T07:54:39.468Z,9.60
2019-04-06T07:57:11.015Z,9.77
2019-04-06T07:59:42.580Z,9.96
2019-04-06T08:02:14.158Z,10.18
2019-04-06T08:04:45.733Z,11.45
2019-04-06T08:07:17.308Z,12.39
2019-04-06T08:09:48.854Z,12.62
2019-04-06T08:12:20.404Z,12.05
2019-04-06T08:14:52.238Z,11.54
2019-04-06T08:17:23.825Z,11.08
2019-04-06T08:19:55.776Z,10.95
2019-04-06T08:22:27.351Z,10.54
2019-04-06T08:24:59.094Z,10.64
2019-04-06T08:27:30.643Z,10.37
2019-04-06T08:30:02.307Z,10.35
2019-04-06T08:32:34.258Z,10.18
2019-04-06T08:35:06.363Z,10.08
2019-04-06T08:37:37.903Z,10.01
2019-04-06T08:40:10.239Z,9.72
2019-04-06T08:42:42.135Z,9.37
2019-04-06T08:45:14.324Z,9.32
2019-04-06T08:47:46.909Z,9.53
2019-04-06T08:50:18.674Z,9.41
2019-04-06T08:52:50.213Z,9.49
2019-04-06T08:55:21.746Z,9.70
2019-04-06T08:57:53.404Z,9.99
2019-04-06T09:00:24.954Z,10.25
2019-04-06T09:02:56.525Z,10.01
2019-04-06T09:05:28.068Z,9.63
2019-04-06T09:07:59.627Z,9.38
2019-04-06T09:10:31.169Z,9.31
2019-04-06T09:13:02.709Z,9.27
2019-04-06T09:15:34.439Z,9.50
2019-04-06T09:18:06.967Z,11.17
2019-04-06T09:20:38.498Z,14.08
2019-04-06T09:23:10.049Z,16.29
2019-04-06T09:25:41.603Z,14.50
2019-04-06T09:28:13.152Z,13.09
2019-04-06T09:30:44.714Z,11.97
2019-04-06T09:33:17.454Z,11.64
2019-04-06T09:35:49.300Z,12.03
2019-04-06T09:38:21.012Z,11.63
2019-04-06T09:40:52.672Z,13.21
2019-04-06T09:43:24.413Z,14.78
2019-04-06T09:46:13.500Z,17.11
2019-04-06T09:48:59.463Z,17.63
2019-04-06T09:52:01.645Z,21.62
2019-04-06T09:54:43.039Z,21.74
2019-04-06T09:57:33.674Z,20.73
2019-04-06T10:00:28.875Z,21.20
2019-04-06T10:03:25.396Z,20.73
2019-04-06T10:06:15.810Z,19.59
2019-04-06T10:09:05.717Z,21.67
2019-04-06T10:11:50.704Z,19.23
2019-04-06T10:14:39.788Z,22.36
2019-04-06T10:17:30.162Z,21.49
2019-04-06T10:20:10.679Z,21.78
2019-04-06T10:23:01.378Z,21.04
2019-04-06T10:25:54.848Z,19.46
2019-04-06T10:28:45.273Z,18.95
2019-04-06T10:31:51.886Z,18.87
2019-04-06T10:34:40.829Z,18.64
2019-04-06T10:37:26.710Z,18.40
2019-04-06T10:40:23.320Z,17.24
2019-04-06T10:43:25.700Z,16.05
2019-04-06T10:46:06.935Z,16.65
2019-04-06T10:48:49.774Z,16.77
2019-04-06T10:51:49.165Z,14.92
2019-04-06T10:54:37.838Z,13.16
2019-04-06T10:57:26.907Z,12.82
2019-04-06T11:00:32.454Z,13.97
2019-04-06T11:03:28.797Z,16.35
2019-04-06T11:06:14.291Z,18.46
2019-04-06T11:08:55.177Z,18.90
2019-04-06T11:11:48.617Z,19.99
2019-04-06T11:14:45.823Z,20.82
2019-04-06T11:17:34.834Z,21.72
2019-04-06T11:20:24.805Z,20.51
2019-04-06T11:23:18.592Z,19.75
2019-04-06T11:26:02.709Z,19.39
2019-04-06T11:28:56.253Z,19.81
2019-04-06T11:31:45.134Z,22.39
2019-04-06T11:34:38.348Z,20.75
2019-04-06T11:37:35.389Z,20.18
2019-04-06T11:40:33.063Z,20.82
2019-04-06T11:43:26.266Z,17.91
2019-04-06T11:46:28.789Z,17.60
2019-04-06T11:49:22.003Z,17.23
2019-04-06T11:52:16.434Z,19.15
2019-04-06T11:55:18.712Z,19.03
2019-04-06T11:58:12.471Z,18.86
2019-04-06T12:00:54.836Z,18.60
2019-04-06T12:03:54.413Z,17.15
2019-04-06T12:06:35.823Z,15.87
2019-04-06T12:09:15.852Z,16.78
2019-04-06T12:12:12.210Z,17.80
2019-04-06T12:15:03.289Z,18.31
2019-04-06T12:17:52.100Z,17.77
2019-04-06T12:20:44.798Z,17.89
2019-04-06T12:23:38.343Z,17.43
2019-04-06T12:26:27.402Z,16.85
2019-04-06T12:29:17.036Z,16.17
2019-04-06T12:32:25.632Z,15.39
2019-04-06T12:35:14.273Z,14.84
2019-04-06T12:37:52.732Z,14.34
2019-04-06T12:40:45.950Z,13.78
2019-04-06T12:43:40.775Z,13.35
2019-04-06T12:46:24.861Z,12.09
2019-04-06T12:49:21.148Z,12.13
2019-04-06T12:52:06.626Z,12.51
2019-04-06T12:55:15.209Z,12.42
2019-04-06T12:58:09.009Z,12.82
2019-04-06T13:00:54.065Z,13.49
2019-04-06T13:03:43.262Z,12.89
2019-04-06T13:06:42.813Z,12.67
2019-04-06T13:09:36.086Z,12.42
2019-04-06T13:12:27.840Z,11.90
2019-04-06T13:15:16.566Z,10.79
2019-04-06T13:17:58.480Z,10.68
2019-04-06T13:21:01.224Z,11.00
2019-04-06T13:23:51.842Z,11.32
2019-04-06T13:26:39.450Z,11.52
2019-04-06T13:29:41.744Z,11.70
2019-04-06T13:32:35.662Z,12.02
2019-04-06T13:35:23.491Z,12.81
2019-04-06T13:38:28.879Z,12.99
2019-04-06T13:41:39.037Z,13.30
2019-04-06T13:44:28.308Z,13.85
2019-04-06T13:47:15.534Z,14.84
2019-04-06T13:50:07.553Z,15.54
2019-04-06T13:52:56.700Z,15.65
2019-04-06T13:56:02.068Z,14.66
2019-04-06T13:58:38.134Z,14.16
2019-04-06T14:01:34.728Z,14.19
2019-04-06T14:04:25.103Z,13.96
2019-04-06T14:07:18.715Z,14.13
2019-04-06T14:10:08.321Z,13.83
2019-04-06T14:12:59.019Z,13.64
2019-04-06T14:15:42.402Z,13.62
2019-04-06T14:18:31.460Z,13.65
2019-04-06T14:21:31.658Z,13.72
2019-04-06T14:24:22.110Z,13.88
2019-04-06T14:27:15.312Z,13.58
2019-04-06T14:30:03.565Z,13.70
2019-04-06T14:32:54.180Z,14.28
2019-04-06T14:35:43.814Z,14.25
2019-04-06T14:38:32.673Z,14.45
2019-04-06T14:41:39.995Z,14.81
2019-04-06T14:44:30.693Z,14.56
2019-04-06T14:47:20.591Z,14.78
2019-04-06T14:49:59.758Z,14.84
2019-04-06T14:52:53.250Z,14.89
2019-04-06T14:55:40.201Z,14.66
2019-04-06T14:58:37.155Z,14.87
2019-04-06T15:01:45.446Z,14.86
2019-04-06T15:04:27.924Z,15.11
2019-04-06T15:07:23.587Z,15.47
2019-04-06T15:10:10.867Z,15.19
2019-04-06T15:12:59.908Z,14.75
2019-04-06T15:15:43.178Z,14.38
2019-04-06T15:18:30.989Z,14.48
2019-04-06T15:21:09.827Z,14.14
2019-04-06T15:24:06.262Z,14.45
2019-04-06T15:26:57.294Z,14.00
2019-04-06T15:29:36.659Z,13.77
2019-04-06T15:32:30.121Z,13.62
2019-04-06T15:35:23.608Z,13.62
2019-04-06T15:38:16.766Z,13.28
2019-04-06T15:41:05.703Z,12.82
2019-04-06T15:43:56.633Z,12.34
2019-04-06T15:46:47.155Z,11.98
2019-04-06T15:49:36.277Z,11.56
2019-04-06T15:52:26.773Z,11.69
2019-04-06T15:55:14.540Z,11.79
2019-04-06T15:57:56.697Z,11.91
2019-04-06T16:00:53.320Z,11.84
2019-04-06T16:03:37.828Z,12.21
2019-04-06T16:06:35.258Z,12.77
2019-04-06T16:09:25.578Z,13.11
2019-04-06T16:12:16.459Z,13.13
2019-04-06T16:15:13.623Z,13.22
2019-04-06T16:18:02.450Z,12.97
2019-04-06T16:20:46.872Z,12.72
2019-04-06T16:23:44.433Z,12.78
2019-04-06T16:26:44.482Z,12.83
2019-04-06T16:29:46.867Z,12.99
2019-04-06T16:32:40.071Z,13.00
2019-04-06T16:35:44.449Z,12.85
2019-04-06T16:38:26.928Z,13.00
2019-04-06T16:41:15.727Z,13.13
2019-04-06T16:43:53.701Z,13.08
2019-04-06T16:46:45.349Z,12.98
2019-04-06T16:49:42.332Z,13.04
2019-04-06T16:52:38.824Z,13.23
2019-04-06T16:55:29.418Z,13.26
2019-04-06T16:58:09.728Z,13.29
2019-04-06T17:01:18.370Z,13.52
2019-04-06T17:04:00.356Z,13.42
2019-04-06T17:06:49.866Z,12.92
2019-04-06T17:09:34.425Z,12.79
2019-04-06T17:12:42.895Z,12.59
2019-04-06T17:15:39.362Z,12.48
2019-04-06T17:18:44.694Z,12.33
2019-04-06T17:21:53.282Z,12.36
2019-04-06T17:24:37.414Z,12.48
2019-04-06T17:27:21.426Z,12.32
2019-04-06T17:30:10.307Z,12.29
2019-04-06T17:32:49.366Z,12.26
2019-04-06T17:35:29.943Z,12.17
2019-04-06T17:38:20.469Z,12.21
2019-04-06T17:41:07.716Z,12.18
2019-04-06T17:44:01.061Z,12.19
2019-04-06T17:47:03.869Z,12.28
2019-04-06T17:49:52.877Z,12.30
2019-04-06T17:52:44.984Z,12.04
2019-04-06T17:55:47.724Z,12.09
2019-04-06T17:58:38.241Z,12.01
2019-04-06T18:01:34.604Z,11.99
2019-04-06T18:04:28.228Z,11.93
2019-04-06T18:07:19.010Z,11.92
2019-04-06T18:10:06.945Z,11.85
2019-04-06T18:12:57.582Z,11.76
2019-04-06T18:15:29.928Z,11.72
2019-04-06T18:18:01.971Z,11.52
2019-04-06T18:20:35.302Z,11.48
2019-04-06T18:23:07.308Z,11.34
2019-04-06T18:25:39.123Z,11.20
2019-04-06T18:28:12.405Z,11.05
2019-04-06T18:30:46.552Z,10.89
2019-04-06T18:33:21.839Z,10.97
2019-04-06T18:35:53.528Z,10.85
2019-04-06T18:38:43.197Z,10.89
2019-04-06T18:41:23.931Z,10.81
2019-04-06T18:43:56.058Z,10.69
2019-04-06T18:46:28.095Z,10.64
2019-04-06T18:48:59.718Z,10.46
2019-04-06T18:51:31.689Z,10.40
2019-04-06T18:54:04.478Z,10.27
2019-04-06T18:57:47.321Z,10.00
2019-04-06T19:00:20.756Z,9.97
2019-04-06T19:02:53.079Z,9.95
2019-04-06T19:05:25.326Z,9.93
2019-04-06T19:09:35.106Z,9.97
2019-04-06T19:12:07.773Z,9.84
2019-04-06T19:14:41.534Z,9.75
2019-04-06T19:17:15.152Z,9.65
2019-04-06T19:19:47.376Z,9.57
2019-04-06T19:22:19.478Z,9.60
2019-04-06T19:24:51.808Z,9.53
2019-04-06T19:27:23.849Z,9.48
2019-04-06T19:29:56.800Z,9.27
2019-04-06T19:32:29.322Z,9.11
2019-04-06T19:35:02.814Z,9.17
2019-04-06T19:37:34.932Z,9.20
2019-04-06T19:40:08.842Z,9.25
2019-04-06T19:42:40.856Z,9.19
2019-04-06T19:45:13.550Z,9.17
2019-04-06T19:47:46.108Z,9.28
2019-04-06T19:50:18.683Z,9.27
2019-04-06T19:52:51.690Z,9.22
2019-04-06T19:55:24.600Z,9.12
2019-04-06T19:57:57.143Z,9.21
2019-04-06T20:00:30.085Z,9.06
2019-04-06T20:03:02.373Z,9.03
2019-04-06T20:05:34.632Z,9.01
2019-04-06T20:08:07.143Z,8.98
2019-04-06T20:10:39.680Z,8.94
2019-04-06T20:13:12.096Z,8.91
2019-04-06T20:15:44.347Z,8.81
2019-04-06T20:18:16.318Z,8.73
2019-04-06T20:20:48.381Z,8.69
2019-04-06T20:23:20.464Z,8.62
2019-04-06T20:25:52.997Z,8.54
2019-04-06T20:28:25.103Z,8.55
2019-04-06T20:30:57.511Z,8.62
2019-04-06T20:33:29.615Z,8.73
2019-04-06T20:36:02.920Z,8.71
2019-04-06T20:38:34.918Z,8.73
2019-04-06T20:41:07.071Z,8.69
2019-04-06T20:43:39.554Z,8.69
2019-04-06T20:59:58.494Z,8.94
2019-04-06T21:02:32.497Z,8.85
2019-04-06T21:05:05.554Z,8.82
2019-04-06T21:07:39.168Z,8.79
2019-04-06T21:10:13.818Z,8.80
2019-04-06T21:12:45.977Z,8.42
2019-04-06T21:15:21.061Z,8.87
2019-04-06T21:17:53.375Z,8.88
2019-04-06T21:20:26.516Z,8.85
2019-04-06T21:22:59.517Z,8.91
2019-04-06T21:25:33.846Z,8.93
2019-04-06T21:28:06.568Z,8.94
2019-04-06T21:30:39.075Z,9.01
2019-04-06T21:33:12.102Z,9.00
2019-04-06T21:35:44.705Z,9.06
2019-04-06T21:38:17.106Z,9.04
2019-04-06T21:40:49.366Z,9.08
2019-04-06T21:43:21.437Z,9.12
2019-04-06T21:45:54.828Z,9.10
2019-04-06T21:48:27.070Z,9.12
2019-04-06T21:51:00.043Z,9.15
2019-04-06T21:53:34.572Z,9.05
2019-04-06T21:56:08.274Z,9.54
2019-04-06T21:58:40.669Z,9.72
2019-04-06T22:01:15.549Z,9.73
2019-04-06T22:03:51.033Z,9.44
2019-04-06T22:06:24.991Z,9.77
2019-04-06T22:08:56.929Z,9.46
2019-04-06T22:11:29.024Z,9.67
2019-04-06T22:14:02.471Z,9.40
2019-04-06T22:16:35.329Z,9.71
2019-04-06T22:19:07.956Z,9.77
2019-04-06T22:21:40.134Z,9.47
2019-04-06T22:24:12.533Z,9.43
2019-04-06T22:26:45.100Z,9.36
2019-04-06T22:29:17.408Z,9.10
2019-04-06T22:31:49.537Z,9.03
2019-04-06T22:34:21.811Z,8.74
2019-04-06T22:36:53.929Z,8.81
2019-04-06T22:39:26.124Z,8.75
2019-04-06T22:41:58.288Z,8.73
2019-04-06T22:44:30.383Z,8.76
2019-04-06T22:47:04.837Z,8.79
2019-04-06T22:49:37.521Z,8.88
2019-04-06T22:52:10.152Z,8.87
2019-04-06T22:54:42.641Z,8.89
2019-04-06T22:57:14.791Z,8.80
2019-04-06T22:59:48.430Z,9.01
2019-04-06T23:02:20.538Z,9.15
2019-04-06T23:05:00.114Z,9.13
2019-04-06T23:07:32.611Z,9.18
2019-04-06T23:10:07.938Z,9.08
2019-04-06T23:12:40.472Z,9.00
2019-04-06T23:15:13.501Z,8.96
2019-04-06T23:17:45.438Z,9.11
2019-04-06T23:20:17.481Z,9.04
2019-04-06T23:22:49.778Z,9.09
2019-04-06T23:25:22.018Z,9.07
2019-04-06T23:27:53.951Z,9.12
2019-04-06T23:30:26.419Z,9.12
2019-04-06T23:32:58.494Z,9.16
2019-04-06T23:35:30.503Z,9.13
2019-04-06T23:38:03.003Z,9.19
2019-04-06T23:40:34.914Z,9.32
2019-04-06T23:43:07.469Z,9.26
2019-04-06T23:45:39.816Z,9.15
2019-04-06T23:48:12.044Z,9.05
2019-04-06T23:50:44.173Z,9.05
2019-04-06T23:53:16.149Z,9.05
2019-04-06T23:55:48.067Z,9.10
2019-04-06T23:58:19.984Z,8.98
